Big Bear Station Historical Data
 
Daily Summary for September 23, 2019 Units:  English    Metric   Both
Next Day »
Daily Weekly Monthly Yearly Custom
  Current: High: Low: Average:
Temperature: 53.6 °F 55.6 °F 49.5 °F 53.6 °F
Dew Point: 47.2 °F 50.5 °F 39.7 °F 46 °F
Humidity: 79% 86% 64% 76%
Wind Speed: 1.7mph 4.2mph 0mph 1.2mph
Wind Gust: -999mph -999mph - -
WindWSW - - SSW
Pressure: 23.52 in 23.56 in 23.52 in -
Precipitation: 0 in      
Historical Graphs
 
 
Tabular Data for September 23, 2019
Time Temperature Dew Point Pressure Wind Wind Speed Wind Gust Humidity Rainfall Rate (Hourly)
00:04 49.5 °F 40.1 °F 23.56 in South 2.7 mph -999 mph 70% 0.00 in
00:19 50.9 °F 40.3 °F 23.56 in Calm   -999 mph 67% 0.00 in
00:34 51.1 °F 40.1 °F 23.56 in Calm   -999 mph 66% 0.00 in
00:50 51.4 °F 40 °F 23.56 in Calm   -999 mph 65% 0.00 in
01:05 51.1 °F 39.7 °F 23.56 in SE 1.7 mph -999 mph 65% 0.00 in
01:20 51.6 °F 40.2 °F 23.55 in Calm   -999 mph 65% 0.00 in
01:35 52.3 °F 40.5 °F 23.55 in Calm   -999 mph 64% 0.00 in
01:50 52.5 °F 41.1 °F 23.55 in Calm   -999 mph 65% 0.00 in
02:06 53.2 °F 41.3 °F 23.54 in WSW 2.2 mph -999 mph 64% 0.00 in
02:21 54 °F 43.3 °F 23.54 in Calm   -999 mph 67% 0.00 in
02:36 53.8 °F 44.6 °F 23.54 in Calm   -999 mph 71% 0.00 in
02:51 54.9 °F 48.5 °F 23.53 in SW 1.7 mph -999 mph 79% 0.00 in
03:06 55.6 °F 50.2 °F 23.53 in South 4.2 mph -999 mph 82% 0.00 in
03:22 55.6 °F 50.5 °F 23.53 in WSW 2.7 mph -999 mph 83% 0.00 in
03:37 55.6 °F 50.2 °F 23.53 in SSE 3.7 mph -999 mph 82% 0.00 in
03:52 55.6 °F 50.5 °F 23.53 in NW 1.7 mph -999 mph 83% 0.00 in
04:07 55.4 °F 50 °F 23.53 in SSE 1.1 mph -999 mph 82% 0.00 in
04:22 55 °F 49.3 °F 23.53 in Calm   -999 mph 81% 0.00 in
04:38 54.9 °F 49.2 °F 23.52 in SW 2.2 mph -999 mph 81% 0.00 in
04:53 54.7 °F 49.3 °F 23.52 in WSW 2.2 mph -999 mph 82% 0.00 in
05:08 54.9 °F 49.5 °F 23.52 in Calm   -999 mph 82% 0.00 in
05:23 54.7 °F 50 °F 23.52 in Calm   -999 mph 84% 0.00 in
05:38 54.7 °F 50.3 °F 23.52 in Calm   -999 mph 85% 0.00 in
05:54 54.1 °F 50 °F 23.52 in NNE 1.7 mph -999 mph 86% 0.00 in
06:09 54 °F 49 °F 23.52 in WSW 1.7 mph -999 mph 83% 0.00 in
06:24 53.6 °F 47.2 °F 23.52 in WSW 1.7 mph -999 mph 79% 0.00 in
Big Bear CA Weather